createdAt,value
2023-07-04T00:04:44.298Z,19.1
2023-07-04T00:19:53.681Z,18.5
2023-07-04T00:35:02.931Z,17.7
2023-07-04T00:50:12.412Z,17.2
2023-07-04T01:05:21.839Z,16.9
2023-07-04T01:20:31.188Z,16.5
2023-07-04T01:35:40.079Z,16.1
2023-07-04T01:50:48.993Z,15.2
2023-07-04T02:05:57.945Z,14.9
2023-07-04T02:21:07.501Z,14.9
2023-07-04T02:36:17.132Z,14.9
2023-07-04T02:51:26.806Z,15
2023-07-04T03:06:36.224Z,14.9
2023-07-04T03:21:46.536Z,14.9
2023-07-04T03:36:56.339Z,14.8
2023-07-04T03:52:05.620Z,14.7
2023-07-04T04:07:15.499Z,14.8
2023-07-04T04:22:24.900Z,14.8
2023-07-04T04:37:37.168Z,14.8
2023-07-04T04:52:46.470Z,14.8
2023-07-04T05:07:56.240Z,14.8
2023-07-04T05:23:06.041Z,14.9
2023-07-04T05:38:15.754Z,15.1
2023-07-04T05:53:25.756Z,15.3
2023-07-04T06:08:35.791Z,15.5
2023-07-04T06:23:45.634Z,15.6
2023-07-04T06:38:56.777Z,15.7
2023-07-04T06:54:06.560Z,15.8
2023-07-04T07:09:16.042Z,16
2023-07-04T07:24:26.848Z,16.4
2023-07-04T07:39:39.488Z,16.7
2023-07-04T07:54:49.619Z,16.8
2023-07-04T08:09:59.425Z,16.9
2023-07-04T08:25:09.708Z,17.4
2023-07-04T08:40:19.246Z,17.7
2023-07-04T08:55:28.918Z,17.9
2023-07-04T09:10:38.954Z,18.2
2023-07-04T09:25:49.060Z,18.5
2023-07-04T09:41:00.266Z,18.5
2023-07-04T09:56:10.811Z,18.5
2023-07-04T10:11:21.267Z,19
2023-07-04T10:26:30.967Z,18.9
2023-07-04T10:41:41.364Z,18.7
2023-07-04T10:56:51.517Z,18.5
2023-07-04T11:12:01.184Z,18.7
2023-07-04T11:27:10.763Z,19
2023-07-04T11:42:20.580Z,18.8
2023-07-04T11:57:30.178Z,18.5
2023-07-04T12:12:39.473Z,18
2023-07-04T12:27:49.270Z,18
2023-07-04T12:44:37.149Z,18.5
2023-07-04T12:59:57.393Z,20
2023-07-04T13:15:07.717Z,21
2023-07-04T13:30:22.163Z,21.5
2023-07-04T13:45:32.908Z,21.5
2023-07-04T14:20:50.954Z,20.5
2023-07-04T14:36:02.081Z,20.2
2023-07-04T14:51:12.386Z,21.6
2023-07-04T15:06:25.141Z,23.4
2023-07-04T15:21:37.718Z,24.5
2023-07-04T15:36:47.564Z,24.8
2023-07-04T15:51:56.633Z,23.7
2023-07-04T16:07:06.087Z,22.6
2023-07-04T16:22:15.018Z,21.9
2023-07-04T16:37:24.170Z,21.4
2023-07-04T16:52:34.196Z,21.2
2023-07-04T17:07:44.032Z,21.3
2023-07-04T17:22:53.799Z,21.1
2023-07-04T17:38:02.868Z,20.8
2023-07-04T17:53:12.035Z,20.5
2023-07-04T18:08:21.333Z,20.4
2023-07-04T18:23:31.277Z,20.3
2023-07-04T18:38:41.909Z,20.1
2023-07-04T18:53:54.114Z,19.9
2023-07-04T19:09:03.857Z,19.7
2023-07-04T19:24:13.644Z,19.5
2023-07-04T19:39:23.493Z,19.3
2023-07-04T19:54:33.355Z,19.1
2023-07-04T20:09:42.781Z,18.9
2023-07-04T20:24:52.561Z,18.8
2023-07-04T20:40:02.126Z,18.6
2023-07-04T20:55:12.232Z,18.5
2023-07-04T21:10:22.028Z,18.4
2023-07-04T21:25:31.681Z,18.2
2023-07-04T21:40:42.197Z,18.1
2023-07-04T21:55:53.354Z,18
2023-07-04T22:11:05.488Z,18
2023-07-04T22:26:15.645Z,18.4
2023-07-04T22:41:25.973Z,18.9
2023-07-04T22:56:36.391Z,19.1
2023-07-04T23:11:46.447Z,19.1
2023-07-04T23:26:56.500Z,18.9
2023-07-04T23:42:05.591Z,18.8
2023-07-04T23:57:15.504Z,18.7
